createdAt,value
2023-03-30T00:02:22.672Z,9.43
2023-03-30T00:05:26.083Z,5.68
2023-03-30T00:08:30.484Z,5.78
2023-03-30T00:11:34.353Z,6.70
2023-03-30T00:14:38.893Z,4.47
2023-03-30T00:17:40.668Z,6.10
2023-03-30T00:20:43.246Z,6.20
2023-03-30T00:23:47.223Z,5.60
2023-03-30T00:26:48.993Z,7.43
2023-03-30T00:29:50.917Z,5.80
2023-03-30T00:32:53.916Z,6.68
2023-03-30T00:35:56.964Z,5.28
2023-03-30T00:39:02.012Z,8.23
2023-03-30T00:42:03.826Z,5.78
2023-03-30T00:45:27.969Z,5.72
2023-03-30T00:48:34.780Z,6.22
2023-03-30T00:51:38.138Z,4.80
2023-03-30T00:54:43.065Z,5.50
2023-03-30T00:57:44.710Z,5.82
2023-03-30T01:00:52.293Z,7.05
2023-03-30T01:03:54.525Z,5.70
2023-03-30T01:06:58.062Z,4.93
2023-03-30T01:10:03.466Z,5.15
2023-03-30T01:13:05.466Z,6.78
2023-03-30T01:16:28.501Z,6.00
2023-03-30T01:20:03.198Z,6.67
2023-03-30T01:23:31.306Z,6.20
2023-03-30T01:26:47.696Z,7.93
2023-03-30T01:29:58.361Z,5.80
2023-03-30T01:33:09.480Z,6.90
2023-03-30T01:36:35.205Z,6.07
2023-03-30T01:39:55.756Z,8.93
2023-03-30T01:43:08.699Z,6.65
2023-03-30T01:46:19.862Z,4.78
2023-03-30T01:49:30.082Z,8.00
2023-03-30T01:52:50.469Z,5.38
2023-03-30T01:56:19.865Z,6.25
2023-03-30T01:59:30.052Z,5.18
2023-03-30T02:02:32.953Z,6.70
2023-03-30T02:05:34.822Z,7.80
2023-03-30T02:08:37.061Z,7.50
2023-03-30T02:11:46.590Z,6.57
2023-03-30T02:14:48.458Z,5.53
2023-03-30T02:17:50.330Z,6.33
2023-03-30T02:20:52.076Z,6.45
2023-03-30T02:23:54.673Z,7.68
2023-03-30T02:26:56.332Z,6.55
2023-03-30T02:29:58.083Z,9.17
2023-03-30T02:32:59.961Z,8.43
2023-03-30T02:36:24.152Z,6.63
2023-03-30T02:40:00.529Z,6.13
2023-03-30T02:43:21.339Z,7.90
2023-03-30T02:46:45.888Z,7.57
2023-03-30T02:50:04.998Z,8.23
2023-03-30T02:53:13.109Z,7.63
2023-03-30T02:56:34.264Z,7.43
2023-03-30T03:00:09.242Z,8.07
2023-03-30T03:03:21.419Z,8.23
2023-03-30T03:06:23.946Z,7.70
2023-03-30T03:09:26.201Z,6.50
2023-03-30T03:12:34.739Z,7.80
2023-03-30T03:15:38.084Z,6.82
2023-03-30T03:18:42.908Z,9.93
2023-03-30T03:21:44.608Z,5.97
2023-03-30T03:24:46.520Z,10.27
2023-03-30T03:27:52.529Z,9.35
2023-03-30T03:30:57.954Z,7.68
2023-03-30T03:33:59.607Z,6.80
2023-03-30T03:37:01.448Z,7.72
2023-03-30T03:40:05.560Z,8.00
2023-03-30T03:43:07.571Z,6.65
2023-03-30T03:46:09.360Z,7.55
2023-03-30T03:49:12.005Z,7.78
2023-03-30T03:52:13.713Z,7.60
2023-03-30T03:55:15.513Z,8.98
2023-03-30T03:58:21.435Z,8.67
2023-03-30T04:01:23.369Z,9.55
2023-03-30T04:04:25.117Z,5.68
2023-03-30T04:07:26.847Z,9.15
2023-03-30T04:10:28.707Z,8.52
2023-03-30T04:13:34.630Z,6.77
2023-03-30T04:16:40.157Z,7.00
2023-03-30T04:19:42.146Z,6.47
2023-03-30T04:22:46.261Z,9.85
2023-03-30T04:25:47.974Z,8.10
2023-03-30T04:28:49.627Z,10.90
2023-03-30T04:31:55.071Z,7.95
2023-03-30T04:35:00.617Z,9.65
2023-03-30T04:38:02.617Z,8.97
2023-03-30T04:41:05.784Z,10.35
2023-03-30T04:44:09.383Z,11.55
2023-03-30T04:47:14.536Z,8.55
2023-03-30T04:50:16.404Z,8.63
2023-03-30T04:53:18.324Z,7.35
2023-03-30T04:56:20.234Z,10.65
2023-03-30T04:59:25.878Z,8.63
2023-03-30T05:02:27.966Z,7.10
2023-03-30T05:05:29.946Z,8.55
2023-03-30T05:08:33.369Z,7.50
2023-03-30T05:11:35.074Z,7.70
2023-03-30T05:14:36.827Z,7.63
2023-03-30T05:17:38.877Z,7.53
2023-03-30T05:20:40.673Z,9.63
2023-03-30T05:23:43.176Z,8.65
2023-03-30T05:26:44.926Z,13.07
2023-03-30T05:29:46.679Z,8.32
2023-03-30T05:32:48.534Z,8.65
2023-03-30T05:35:51.009Z,8.63
2023-03-30T05:38:52.928Z,7.57
2023-03-30T05:41:54.698Z,8.70
2023-03-30T05:44:57.085Z,9.75
2023-03-30T05:47:59.017Z,11.82
2023-03-30T05:51:02.444Z,8.93
2023-03-30T05:54:04.782Z,8.55
2023-03-30T05:57:06.532Z,8.10
2023-03-30T06:00:10.486Z,9.38
2023-03-30T06:03:12.777Z,8.73
2023-03-30T06:06:14.701Z,8.95
2023-03-30T06:09:16.787Z,7.82
2023-03-30T06:12:18.625Z,7.75
2023-03-30T06:15:20.484Z,11.03
2023-03-30T06:18:23.174Z,11.70
2023-03-30T06:21:25.356Z,10.10
2023-03-30T06:24:27.157Z,10.55
2023-03-30T06:27:31.809Z,8.68
2023-03-30T06:30:33.851Z,10.20
2023-03-30T06:33:36.670Z,10.03
2023-03-30T06:36:44.985Z,13.70
2023-03-30T06:39:47.647Z,12.77
2023-03-30T06:42:49.414Z,14.82
2023-03-30T06:45:55.280Z,14.17
2023-03-30T06:48:57.105Z,16.67
2023-03-30T06:52:00.908Z,19.33
2023-03-30T06:55:05.927Z,12.70
2023-03-30T06:58:07.937Z,12.60
2023-03-30T07:01:13.450Z,16.07
2023-03-30T07:04:16.204Z,12.50
2023-03-30T07:07:18.205Z,10.90
2023-03-30T07:10:20.101Z,10.07
2023-03-30T07:13:21.991Z,12.95
2023-03-30T07:16:23.870Z,9.40
2023-03-30T07:19:25.920Z,9.00
2023-03-30T07:22:28.141Z,11.18
2023-03-30T07:25:29.937Z,19.42
2023-03-30T07:28:31.669Z,16.58
2023-03-30T07:31:33.415Z,28.27
2023-03-30T07:34:35.289Z,26.07
2023-03-30T07:37:40.169Z,21.80
2023-03-30T07:40:42.279Z,31.73
2023-03-30T07:43:44.441Z,33.05
2023-03-30T07:46:46.342Z,28.63
2023-03-30T07:49:48.043Z,35.90
2023-03-30T07:52:51.548Z,31.80
2023-03-30T07:55:53.293Z,29.13
2023-03-30T07:58:55.161Z,25.90
2023-03-30T08:01:57.248Z,25.63
2023-03-30T08:05:00.170Z,28.90
2023-03-30T08:08:02.141Z,23.77
2023-03-30T08:11:04.212Z,27.10
2023-03-30T08:14:06.649Z,24.00
2023-03-30T08:17:08.415Z,20.97
2023-03-30T08:20:13.109Z,25.37
2023-03-30T08:23:14.868Z,23.15
2023-03-30T08:26:16.862Z,41.72
2023-03-30T08:29:18.910Z,38.65
2023-03-30T08:32:21.086Z,30.70
2023-03-30T08:35:23.743Z,31.47
2023-03-30T08:38:26.057Z,22.77
2023-03-30T08:41:32.198Z,29.00
2023-03-30T08:44:37.778Z,16.17
2023-03-30T08:47:41.924Z,43.70
2023-03-30T08:50:44.159Z,27.30
2023-03-30T08:53:45.888Z,17.02
2023-03-30T08:57:10.032Z,11.82
2023-03-30T09:00:42.786Z,14.05
2023-03-30T09:04:13.640Z,13.53
2023-03-30T09:07:21.827Z,22.27
2023-03-30T09:10:23.697Z,13.77
2023-03-30T09:13:28.737Z,10.23
2023-03-30T09:16:36.529Z,8.32
2023-03-30T09:19:51.313Z,10.07
2023-03-30T09:22:54.045Z,8.83
2023-03-30T09:26:15.241Z,7.90
2023-03-30T09:29:28.860Z,9.15
2023-03-30T09:32:32.716Z,10.77
2023-03-30T09:35:42.542Z,7.60
2023-03-30T09:38:45.511Z,11.17
2023-03-30T09:42:02.801Z,14.23
2023-03-30T09:45:14.046Z,10.00
2023-03-30T09:48:16.346Z,9.85
2023-03-30T09:51:31.215Z,12.67
2023-03-30T09:54:41.010Z,14.87
2023-03-30T09:57:42.788Z,11.68
2023-03-30T10:00:44.908Z,11.68
2023-03-30T10:04:08.515Z,10.10
2023-03-30T10:07:34.674Z,10.37
2023-03-30T10:10:37.642Z,10.70
2023-03-30T10:13:42.616Z,10.45
2023-03-30T10:16:44.426Z,12.95
2023-03-30T10:19:49.420Z,14.82
2023-03-30T10:22:55.275Z,19.90
2023-03-30T10:26:02.705Z,12.43
2023-03-30T10:29:07.606Z,8.48
2023-03-30T10:32:20.766Z,10.40
2023-03-30T10:35:25.059Z,15.32
2023-03-30T10:38:31.455Z,18.13
2023-03-30T10:41:33.251Z,10.27
2023-03-30T10:44:37.141Z,17.63
2023-03-30T10:48:00.163Z,17.00
2023-03-30T10:51:44.181Z,15.50
2023-03-30T10:55:00.686Z,14.23
2023-03-30T10:58:27.659Z,15.57
2023-03-30T11:01:47.853Z,7.85
2023-03-30T11:05:09.744Z,15.88
2023-03-30T11:08:39.484Z,19.85
2023-03-30T11:11:45.785Z,16.47
2023-03-30T11:14:50.410Z,8.57
2023-03-30T11:18:23.459Z,7.88
2023-03-30T11:21:39.248Z,22.40
2023-03-30T11:24:41.211Z,25.33
2023-03-30T11:28:12.458Z,12.43
2023-03-30T11:31:23.335Z,15.07
2023-03-30T11:34:45.903Z,14.05
2023-03-30T11:37:57.457Z,33.35
2023-03-30T11:41:10.047Z,21.13
2023-03-30T11:44:12.175Z,22.07
2023-03-30T11:47:27.066Z,8.73
2023-03-30T11:50:52.857Z,5.75
2023-03-30T11:54:16.852Z,6.35
2023-03-30T11:57:21.634Z,7.07
2023-03-30T12:00:55.864Z,5.63
2023-03-30T12:04:08.047Z,7.00
2023-03-30T12:07:19.540Z,7.68
2023-03-30T12:10:25.774Z,7.00
2023-03-30T12:13:38.112Z,9.68
2023-03-30T12:16:47.068Z,6.80
2023-03-30T12:19:59.648Z,7.60
2023-03-30T12:23:21.965Z,10.15
2023-03-30T12:26:31.634Z,13.52
2023-03-30T12:30:02.261Z,9.93
2023-03-30T12:33:18.694Z,10.63
2023-03-30T12:36:38.209Z,18.13
2023-03-30T12:39:55.245Z,8.52
2023-03-30T12:43:16.202Z,6.03
2023-03-30T12:46:42.235Z,5.22
2023-03-30T12:49:59.004Z,6.87
2023-03-30T12:53:33.457Z,5.67
2023-03-30T12:56:35.158Z,5.05
2023-03-30T12:59:48.570Z,5.78
2023-03-30T13:02:55.192Z,5.85
2023-03-30T13:05:58.213Z,4.80
2023-03-30T13:09:04.639Z,5.40
2023-03-30T13:12:20.634Z,5.85
2023-03-30T13:15:42.045Z,4.65
2023-03-30T13:18:54.412Z,5.25
2023-03-30T13:21:58.171Z,4.40
2023-03-30T13:25:25.378Z,4.90
2023-03-30T13:28:44.562Z,4.95
2023-03-30T13:32:12.972Z,5.20
2023-03-30T13:35:52.409Z,5.50
2023-03-30T13:39:04.062Z,5.63
2023-03-30T13:42:48.062Z,5.53
2023-03-30T13:46:16.349Z,5.60
2023-03-30T13:49:25.004Z,6.85
2023-03-30T13:52:37.885Z,4.47
2023-03-30T13:55:42.428Z,5.50
2023-03-30T13:58:49.787Z,5.23
2023-03-30T14:01:56.823Z,4.60
2023-03-30T14:05:20.959Z,7.57
2023-03-30T14:08:22.858Z,4.68
2023-03-30T14:11:32.969Z,4.43
2023-03-30T14:14:37.196Z,5.17
2023-03-30T14:17:39.071Z,5.15
2023-03-30T14:20:48.595Z,5.32
2023-03-30T14:23:52.578Z,3.60
2023-03-30T14:27:00.943Z,4.80
2023-03-30T14:30:04.599Z,4.67
2023-03-30T14:33:07.559Z,4.20
2023-03-30T14:36:11.947Z,4.18
2023-03-30T14:39:13.701Z,4.15
2023-03-30T14:42:20.752Z,5.67
2023-03-30T14:45:22.483Z,4.30
2023-03-30T14:48:35.129Z,5.00
2023-03-30T14:51:47.261Z,6.07
2023-03-30T14:55:07.494Z,5.05
2023-03-30T14:58:14.049Z,4.30
2023-03-30T15:01:17.471Z,4.53
2023-03-30T15:04:19.627Z,3.90
2023-03-30T15:07:21.351Z,6.50
2023-03-30T15:10:37.057Z,5.85
2023-03-30T15:13:51.650Z,4.10
2023-03-30T15:16:53.945Z,5.17
2023-03-30T15:19:56.541Z,6.47
2023-03-30T15:23:02.098Z,5.00
2023-03-30T15:26:04.409Z,6.38
2023-03-30T15:29:06.343Z,6.50
2023-03-30T15:32:08.228Z,6.60
2023-03-30T15:35:16.032Z,6.55
2023-03-30T15:38:21.618Z,6.57
2023-03-30T15:41:25.158Z,5.60
2023-03-30T15:44:27.013Z,6.70
2023-03-30T15:47:28.842Z,6.47
2023-03-30T15:50:30.603Z,6.97
2023-03-30T15:53:59.971Z,4.97
2023-03-30T15:57:10.895Z,5.50
2023-03-30T16:00:20.483Z,5.23
2023-03-30T16:03:36.860Z,5.83
2023-03-30T16:06:40.959Z,4.78
2023-03-30T16:09:48.236Z,5.70
2023-03-30T16:12:52.887Z,7.43
2023-03-30T16:15:54.849Z,5.67
2023-03-30T16:18:56.622Z,5.60
2023-03-30T16:21:58.466Z,5.60
2023-03-30T16:25:04.142Z,7.10
2023-03-30T16:28:05.879Z,5.82
2023-03-30T16:31:24.956Z,4.97
2023-03-30T16:34:26.856Z,5.93
2023-03-30T16:37:28.552Z,5.00
2023-03-30T16:40:47.088Z,4.95
2023-03-30T16:43:49.269Z,8.43
2023-03-30T16:46:51.580Z,7.40
2023-03-30T16:49:53.286Z,4.67
2023-03-30T16:52:54.997Z,6.68
2023-03-30T16:56:00.173Z,12.90
2023-03-30T16:59:01.985Z,7.55
2023-03-30T17:02:04.114Z,6.03
2023-03-30T17:05:06.162Z,10.73
2023-03-30T17:08:27.391Z,9.27
2023-03-30T17:11:33.093Z,12.50
2023-03-30T17:14:34.818Z,16.90
2023-03-30T17:17:36.681Z,12.90
2023-03-30T17:20:48.510Z,12.00
2023-03-30T17:23:50.289Z,10.88
2023-03-30T17:26:56.166Z,8.57
2023-03-30T17:30:00.814Z,8.75
2023-03-30T17:33:02.811Z,7.33
2023-03-30T17:36:07.631Z,6.20
2023-03-30T17:39:14.933Z,6.78
2023-03-30T17:42:20.151Z,6.90
2023-03-30T17:45:24.090Z,6.15
2023-03-30T17:48:26.286Z,6.27
2023-03-30T17:51:28.112Z,5.73
2023-03-30T17:54:30.905Z,7.90
2023-03-30T17:57:36.039Z,7.07
2023-03-30T18:00:37.690Z,5.97
2023-03-30T18:03:39.862Z,6.23
2023-03-30T18:06:41.833Z,6.10
2023-03-30T18:09:43.600Z,9.18
2023-03-30T18:12:45.401Z,6.22
2023-03-30T18:15:49.462Z,6.50
2023-03-30T18:18:51.262Z,6.30
2023-03-30T18:21:55.044Z,6.77
2023-03-30T18:24:56.834Z,5.07
2023-03-30T18:27:58.790Z,6.60
2023-03-30T18:31:01.050Z,6.35
2023-03-30T18:34:03.413Z,5.83
2023-03-30T18:37:05.137Z,6.50
2023-03-30T18:40:18.853Z,6.72
2023-03-30T18:43:24.486Z,5.72
2023-03-30T18:46:29.238Z,7.03
2023-03-30T18:49:30.922Z,6.67
2023-03-30T18:52:33.895Z,7.07
2023-03-30T18:55:36.571Z,6.63
2023-03-30T18:58:44.874Z,6.95
2023-03-30T19:01:47.437Z,8.40
2023-03-30T19:04:49.400Z,9.23
2023-03-30T19:07:51.572Z,7.97
2023-03-30T19:10:55.296Z,7.00
2023-03-30T19:14:04.356Z,7.13
2023-03-30T19:17:06.247Z,5.57
2023-03-30T19:20:08.515Z,5.87
2023-03-30T19:23:11.425Z,6.63
2023-03-30T19:26:17.421Z,7.18
2023-03-30T19:29:19.150Z,7.40
2023-03-30T19:32:20.936Z,5.60
2023-03-30T19:35:23.534Z,5.57
2023-03-30T19:38:25.462Z,5.53
2023-03-30T19:41:31.494Z,6.90
2023-03-30T19:44:33.176Z,5.20
2023-03-30T19:47:35.225Z,5.47
2023-03-30T19:50:38.596Z,5.87
2023-03-30T19:53:40.440Z,5.60
2023-03-30T19:56:42.228Z,5.18
2023-03-30T19:59:48.370Z,6.35
2023-03-30T20:02:51.527Z,4.95
2023-03-30T20:05:53.333Z,5.60
2023-03-30T20:08:55.313Z,6.80
2023-03-30T20:12:02.275Z,6.55
2023-03-30T20:15:06.123Z,5.70
2023-03-30T20:18:11.586Z,6.60
2023-03-30T20:21:14.110Z,9.17
2023-03-30T20:24:15.928Z,10.27
2023-03-30T20:27:17.915Z,6.75
2023-03-30T20:30:24.516Z,6.15
2023-03-30T20:33:27.590Z,8.20
2023-03-30T20:36:31.233Z,9.53
2023-03-30T20:39:34.392Z,7.80
2023-03-30T20:42:42.950Z,7.03
2023-03-30T20:45:51.225Z,7.45
2023-03-30T20:48:55.443Z,6.60
2023-03-30T20:52:00.961Z,10.93
2023-03-30T20:55:02.667Z,6.60
2023-03-30T20:58:07.830Z,5.82
2023-03-30T21:01:16.552Z,6.32
2023-03-30T21:04:22.502Z,6.70
2023-03-30T21:07:24.895Z,6.30
2023-03-30T21:10:26.661Z,10.03
2023-03-30T21:13:28.353Z,9.05
2023-03-30T21:16:30.191Z,10.50
2023-03-30T21:19:31.967Z,7.85
2023-03-30T21:22:33.695Z,6.50
2023-03-30T21:25:35.600Z,5.67
2023-03-30T21:28:41.447Z,8.40
2023-03-30T21:31:43.142Z,6.38
2023-03-30T21:34:44.858Z,7.13
2023-03-30T21:37:46.542Z,6.07
2023-03-30T21:41:15.569Z,7.40
2023-03-30T21:44:24.310Z,6.75
2023-03-30T21:47:26.028Z,7.43
2023-03-30T21:50:27.807Z,7.03
2023-03-30T21:53:29.798Z,6.10
2023-03-30T21:56:32.040Z,6.37
2023-03-30T21:59:37.457Z,6.97
2023-03-30T22:02:39.313Z,8.75
2023-03-30T22:05:42.163Z,6.32
2023-03-30T22:08:47.729Z,7.17
2023-03-30T22:11:49.381Z,8.40
2023-03-30T22:14:54.253Z,7.82
2023-03-30T22:17:55.972Z,8.07
2023-03-30T22:21:01.758Z,7.38
2023-03-30T22:24:04.992Z,7.97
2023-03-30T22:27:07.240Z,8.93
2023-03-30T22:30:09.429Z,8.38
2023-03-30T22:33:11.764Z,6.93
2023-03-30T22:36:19.203Z,8.10
2023-03-30T22:39:21.274Z,7.27
2023-03-30T22:42:22.974Z,7.43
2023-03-30T22:45:31.360Z,6.57
2023-03-30T22:48:33.539Z,10.27
2023-03-30T22:51:42.377Z,5.95
2023-03-30T22:54:44.186Z,6.20
2023-03-30T22:57:46.845Z,7.20
2023-03-30T23:00:48.580Z,7.88
2023-03-30T23:03:54.637Z,8.82
2023-03-30T23:06:56.698Z,6.05
2023-03-30T23:10:04.322Z,8.80
2023-03-30T23:13:06.074Z,8.37
2023-03-30T23:16:11.247Z,6.85
2023-03-30T23:19:16.696Z,7.57
2023-03-30T23:22:18.429Z,7.75
2023-03-30T23:25:21.049Z,8.77
2023-03-30T23:28:22.848Z,7.63
2023-03-30T23:31:31.678Z,6.38
2023-03-30T23:34:33.679Z,8.23
2023-03-30T23:37:37.059Z,6.07
2023-03-30T23:40:40.118Z,7.97
2023-03-30T23:43:42.357Z,5.57
2023-03-30T23:46:51.032Z,6.30
2023-03-30T23:49:52.808Z,5.57
2023-03-30T23:52:54.552Z,7.22
2023-03-30T23:55:56.330Z,6.70
2023-03-30T23:58:59.366Z,7.83
